createdAt,value
2023-01-17T00:02:13.489Z,3.58
2023-01-17T00:05:00.121Z,3.56
2023-01-17T00:07:46.803Z,3.56
2023-01-17T00:10:20.249Z,3.50
2023-01-17T00:12:50.292Z,3.50
2023-01-17T00:15:20.077Z,3.52
2023-01-17T00:17:48.693Z,3.50
2023-01-17T00:20:36.759Z,3.50
2023-01-17T00:23:37.969Z,3.50
2023-01-17T00:26:16.831Z,3.50
2023-01-17T00:28:45.025Z,3.50
2023-01-17T00:31:14.532Z,3.50
2023-01-17T00:33:42.443Z,3.50
2023-01-17T00:36:10.529Z,3.50
2023-01-17T00:38:39.343Z,3.50
2023-01-17T00:41:09.713Z,3.50
2023-01-17T00:43:56.334Z,3.50
2023-01-17T00:46:43.059Z,3.50
2023-01-17T00:49:29.782Z,3.50
2023-01-17T00:52:16.412Z,3.50
2023-01-17T00:55:03.160Z,3.50
2023-01-17T00:57:50.006Z,3.50
2023-01-17T01:00:39.597Z,3.50
2023-01-17T01:03:29.712Z,3.50
2023-01-17T01:06:16.885Z,3.50
2023-01-17T01:09:03.485Z,3.50
2023-01-17T01:11:50.226Z,3.54
2023-01-17T01:14:36.988Z,3.52
2023-01-17T01:17:23.597Z,3.52
2023-01-17T01:20:10.064Z,3.52
2023-01-17T01:22:56.664Z,3.54
2023-01-17T01:25:43.305Z,3.50
2023-01-17T01:28:32.192Z,3.52
2023-01-17T01:31:20.406Z,3.50
2023-01-17T01:33:48.479Z,3.50
2023-01-17T01:36:16.344Z,3.50
2023-01-17T01:38:44.340Z,3.50
2023-01-17T01:41:12.322Z,3.50
2023-01-17T01:43:53.898Z,3.50
2023-01-17T01:46:30.776Z,3.50
2023-01-17T01:49:20.918Z,3.50
2023-01-17T01:51:53.730Z,3.50
2023-01-17T01:54:25.661Z,3.50
2023-01-17T01:56:54.175Z,3.50
2023-01-17T01:59:22.179Z,3.50
2023-01-17T02:01:51.804Z,3.50
2023-01-17T02:04:19.955Z,3.46
2023-01-17T02:06:51.195Z,3.46
2023-01-17T02:09:19.045Z,3.40
2023-01-17T02:11:47.455Z,3.40
2023-01-17T02:14:19.618Z,3.40
2023-01-17T02:17:24.196Z,3.40
2023-01-17T02:20:20.243Z,3.40
2023-01-17T02:23:25.862Z,3.40
2023-01-17T02:26:23.103Z,3.40
2023-01-17T02:29:08.013Z,3.38
2023-01-17T02:31:41.393Z,3.36
2023-01-17T02:34:35.586Z,3.40
2023-01-17T02:37:08.311Z,3.38
2023-01-17T02:40:03.392Z,3.40
2023-01-17T02:42:42.612Z,3.40
2023-01-17T02:45:19.702Z,3.40
2023-01-17T02:47:47.592Z,3.40
2023-01-17T02:50:22.228Z,3.40
2023-01-17T02:53:17.595Z,3.40
2023-01-17T02:56:11.850Z,3.40
2023-01-17T02:58:57.949Z,3.40
2023-01-17T03:01:48.106Z,3.44
2023-01-17T03:04:20.884Z,3.40
2023-01-17T03:06:54.489Z,3.40
2023-01-17T03:09:22.374Z,3.40
2023-01-17T03:11:50.274Z,3.40
2023-01-17T03:14:18.264Z,3.40
2023-01-17T03:16:46.254Z,3.40
2023-01-17T03:19:14.910Z,3.40
2023-01-17T03:21:43.057Z,3.40
2023-01-17T03:24:11.129Z,3.40
2023-01-17T03:26:39.168Z,3.40
2023-01-17T03:29:07.198Z,3.40
2023-01-17T03:31:35.102Z,3.40
2023-01-17T03:34:03.046Z,3.30
2023-01-17T03:36:30.942Z,3.30
2023-01-17T03:38:58.663Z,3.30
2023-01-17T03:41:26.588Z,3.22
2023-01-17T03:43:54.496Z,3.20
2023-01-17T03:46:26.478Z,3.14
2023-01-17T03:48:54.555Z,3.10
2023-01-17T03:51:22.428Z,3.10
2023-01-17T03:53:51.990Z,3.10
2023-01-17T03:56:20.073Z,3.10
2023-01-17T03:58:47.914Z,3.00
2023-01-17T04:01:15.893Z,3.00
2023-01-17T04:03:43.918Z,3.00
2023-01-17T04:06:11.924Z,3.00
2023-01-17T04:08:39.847Z,2.90
2023-01-17T04:11:07.760Z,2.90
2023-01-17T04:13:35.670Z,2.90
2023-01-17T04:16:03.923Z,2.90
2023-01-17T04:18:31.890Z,2.84
2023-01-17T04:20:59.983Z,2.80
2023-01-17T04:23:27.805Z,2.80
2023-01-17T04:25:55.747Z,2.78
2023-01-17T04:28:23.753Z,2.70
2023-01-17T04:30:51.765Z,2.70
2023-01-17T04:33:19.952Z,2.62
2023-01-17T04:35:47.948Z,2.60
2023-01-17T04:38:15.790Z,2.60
2023-01-17T04:40:43.604Z,2.60
2023-01-17T04:43:11.508Z,2.60
2023-01-17T04:45:39.618Z,2.54
2023-01-17T04:48:07.967Z,2.50
2023-01-17T04:50:35.854Z,2.50
2023-01-17T04:53:03.647Z,2.50
2023-01-17T04:55:31.706Z,2.50
2023-01-17T04:57:59.687Z,2.40
2023-01-17T05:00:27.692Z,2.40
2023-01-17T05:02:55.565Z,2.40
2023-01-17T05:05:23.478Z,2.40
2023-01-17T05:07:55.919Z,2.36
2023-01-17T05:10:24.488Z,2.30
2023-01-17T05:12:57.043Z,2.30
2023-01-17T05:15:25.483Z,2.30
2023-01-17T05:17:53.830Z,2.30
2023-01-17T05:20:23.057Z,2.30
2023-01-17T05:22:57.851Z,2.30
2023-01-17T05:25:28.629Z,2.30
2023-01-17T05:27:57.240Z,2.30
2023-01-17T05:30:24.970Z,2.30
2023-01-17T05:32:54.269Z,2.30
2023-01-17T05:35:32.627Z,2.30
2023-01-17T05:38:00.767Z,2.30
2023-01-17T05:40:30.892Z,2.30
2023-01-17T05:42:59.530Z,2.30
2023-01-17T05:45:28.925Z,2.30
2023-01-17T05:47:57.356Z,2.30
2023-01-17T05:50:30.884Z,2.20
2023-01-17T05:53:04.617Z,2.20
2023-01-17T05:55:33.108Z,2.20
2023-01-17T05:58:01.189Z,2.20
2023-01-17T06:00:29.385Z,2.20
2023-01-17T06:02:58.764Z,2.20
2023-01-17T06:05:27.588Z,2.16
2023-01-17T06:07:56.655Z,2.12
2023-01-17T06:10:24.918Z,2.10
2023-01-17T06:13:07.912Z,2.10
2023-01-17T06:15:37.235Z,2.10
2023-01-17T06:18:10.795Z,2.10
2023-01-17T06:20:39.677Z,2.10
2023-01-17T06:23:12.531Z,2.00
2023-01-17T06:25:45.328Z,2.00
2023-01-17T06:28:16.077Z,2.00
2023-01-17T06:30:44.614Z,2.00
2023-01-17T06:33:12.981Z,2.10
2023-01-17T06:35:47.663Z,2.10
2023-01-17T06:38:15.668Z,2.10
2023-01-17T06:40:43.441Z,2.10
2023-01-17T06:43:11.529Z,2.10
2023-01-17T06:45:39.444Z,2.10
2023-01-17T06:48:07.293Z,2.20
2023-01-17T06:50:35.180Z,2.20
2023-01-17T06:53:05.929Z,2.20
2023-01-17T06:55:34.924Z,2.20
2023-01-17T06:58:03.244Z,2.24
2023-01-17T07:00:31.937Z,2.30
2023-01-17T07:03:00.107Z,2.30
2023-01-17T07:05:28.649Z,2.30
2023-01-17T07:08:00.133Z,2.36
2023-01-17T07:10:28.015Z,2.40
2023-01-17T07:13:00.696Z,2.40
2023-01-17T07:15:28.716Z,2.40
2023-01-17T07:17:56.439Z,2.40
2023-01-17T07:20:24.454Z,2.40
2023-01-17T07:22:52.405Z,2.40
2023-01-17T07:25:20.288Z,2.40
2023-01-17T07:27:48.170Z,2.50
2023-01-17T07:30:16.463Z,2.50
2023-01-17T07:32:44.395Z,2.50
2023-01-17T07:35:12.368Z,2.56
2023-01-17T07:37:40.429Z,2.60
2023-01-17T07:40:09.857Z,2.60
2023-01-17T07:42:37.769Z,2.70
2023-01-17T07:45:07.094Z,2.70
2023-01-17T07:47:34.848Z,2.78
2023-01-17T07:50:04.185Z,2.80
2023-01-17T07:52:32.228Z,2.80
2023-01-17T07:55:00.190Z,2.86
2023-01-17T07:57:28.962Z,2.90
2023-01-17T07:59:56.914Z,2.90
2023-01-17T08:02:24.801Z,3.00
2023-01-17T08:04:52.714Z,3.00
2023-01-17T08:07:20.675Z,3.00
2023-01-17T08:09:50.237Z,3.10
2023-01-17T08:12:18.391Z,3.10
2023-01-17T08:14:46.258Z,3.14
2023-01-17T08:17:20.496Z,3.20
2023-01-17T08:19:52.329Z,3.20
2023-01-17T08:22:20.322Z,3.28
2023-01-17T08:24:48.769Z,3.30
2023-01-17T08:27:16.720Z,3.30
2023-01-17T08:29:48.363Z,3.30
2023-01-17T08:32:16.440Z,3.30
2023-01-17T08:34:44.496Z,3.38
2023-01-17T08:37:12.448Z,3.38
2023-01-17T08:39:40.437Z,3.40
2023-01-17T08:42:08.374Z,3.40
2023-01-17T08:44:36.430Z,3.40
2023-01-17T08:47:04.315Z,3.44
2023-01-17T08:49:32.204Z,3.50
2023-01-17T08:52:00.233Z,3.50
2023-01-17T08:54:29.083Z,3.50
2023-01-17T08:56:56.956Z,3.50
2023-01-17T08:59:24.871Z,3.60
2023-01-17T09:01:54.534Z,3.60
2023-01-17T09:04:22.741Z,3.64
2023-01-17T09:06:50.823Z,3.66
2023-01-17T09:09:18.808Z,3.68
2023-01-17T09:11:46.778Z,3.70
2023-01-17T09:14:14.558Z,3.70
2023-01-17T09:16:42.313Z,3.70
2023-01-17T09:19:10.487Z,3.70
2023-01-17T09:21:38.449Z,3.70
2023-01-17T09:24:06.788Z,3.74
2023-01-17T09:26:34.817Z,3.80
2023-01-17T09:29:02.743Z,3.80
2023-01-17T09:31:30.824Z,3.82
2023-01-17T09:33:58.789Z,3.90
2023-01-17T09:36:33.861Z,3.90
2023-01-17T09:39:02.344Z,3.98
2023-01-17T09:41:32.609Z,4.00
2023-01-17T09:44:18.166Z,4.00
2023-01-17T09:46:47.504Z,4.06
2023-01-17T09:49:38.011Z,4.10
2023-01-17T09:52:06.585Z,4.10
2023-01-17T09:54:45.516Z,4.14
2023-01-17T09:57:44.725Z,4.18
2023-01-17T10:00:36.405Z,4.20
2023-01-17T10:03:43.137Z,4.30
2023-01-17T10:07:02.180Z,4.30
2023-01-17T10:09:37.703Z,4.30
2023-01-17T10:12:51.133Z,4.30
2023-01-17T10:15:42.016Z,4.30
2023-01-17T10:18:51.013Z,4.38
2023-01-17T10:21:27.195Z,4.40
2023-01-17T10:24:41.504Z,4.38
2023-01-17T10:27:23.778Z,4.40
2023-01-17T10:29:51.937Z,4.44
2023-01-17T10:32:22.199Z,4.50
2023-01-17T10:34:51.841Z,4.50
2023-01-17T10:41:20.428Z,4.60
2023-01-17T10:44:20.690Z,4.70
2023-01-17T10:47:09.964Z,4.70
2023-01-17T10:49:48.284Z,4.72
2023-01-17T10:52:33.335Z,4.80
2023-01-17T10:55:23.037Z,4.90
2023-01-17T10:57:49.765Z,4.90
2023-01-17T11:00:22.175Z,5.00
2023-01-17T11:02:49.992Z,5.10
2023-01-17T11:05:30.393Z,5.10
2023-01-17T11:08:11.148Z,5.14
2023-01-17T11:10:44.615Z,5.22
2023-01-17T11:13:31.120Z,5.30
2023-01-17T11:16:10.477Z,5.40
2023-01-17T11:18:40.047Z,5.50
2023-01-17T11:21:16.780Z,5.60
2023-01-17T11:23:48.195Z,5.70
2023-01-17T11:26:46.884Z,5.80
2023-01-17T11:29:37.076Z,5.90
2023-01-17T11:32:28.683Z,5.98
2023-01-17T11:35:20.529Z,6.00
2023-01-17T11:37:52.666Z,6.10
2023-01-17T11:40:42.400Z,6.10
2023-01-17T11:43:12.303Z,6.20
2023-01-17T11:45:39.644Z,6.20
2023-01-17T11:48:12.022Z,6.30
2023-01-17T11:50:57.190Z,6.30
2023-01-17T11:53:36.090Z,6.40
2023-01-17T11:56:16.508Z,6.40
2023-01-17T11:58:45.277Z,6.50
2023-01-17T12:01:41.623Z,6.50
2023-01-17T12:04:19.334Z,6.60
2023-01-17T12:07:06.052Z,6.70
2023-01-17T12:09:51.419Z,6.80
2023-01-17T12:13:14.745Z,6.80
2023-01-17T12:15:59.740Z,6.90
2023-01-17T12:18:44.106Z,6.90
2023-01-17T12:21:27.863Z,7.00
2023-01-17T12:24:00.272Z,7.00
2023-01-17T12:26:58.586Z,7.00
2023-01-17T12:29:43.380Z,7.00
2023-01-17T12:32:57.870Z,7.00
2023-01-17T12:35:52.987Z,7.00
2023-01-17T12:38:38.629Z,7.06
2023-01-17T12:41:25.860Z,7.10
2023-01-17T12:43:58.566Z,7.10
2023-01-17T12:46:42.530Z,7.08
2023-01-17T12:49:30.586Z,7.10
2023-01-17T12:52:12.071Z,7.10
2023-01-17T12:54:42.077Z,7.10
2023-01-17T12:57:16.383Z,7.00
2023-01-17T13:00:07.803Z,7.02
2023-01-17T13:03:34.250Z,7.10
2023-01-17T13:06:00.708Z,7.10
2023-01-17T13:08:43.234Z,7.08
2023-01-17T13:11:19.818Z,7.10
2023-01-17T13:13:50.074Z,7.08
2023-01-17T13:16:42.876Z,7.00
2023-01-17T13:19:18.612Z,7.00
2023-01-17T13:21:45.578Z,7.00
2023-01-17T13:24:32.700Z,7.00
2023-01-17T13:27:28.640Z,7.00
2023-01-17T13:30:17.827Z,7.00
2023-01-17T13:32:56.347Z,7.00
2023-01-17T13:35:43.669Z,7.00
2023-01-17T13:39:11.581Z,7.00
2023-01-17T13:41:56.416Z,6.92
2023-01-17T13:44:25.686Z,6.90
2023-01-17T13:47:01.655Z,6.90
2023-01-17T13:49:28.500Z,6.80
2023-01-17T13:52:11.731Z,6.80
2023-01-17T13:55:02.342Z,6.70
2023-01-17T13:57:45.559Z,6.70
2023-01-17T14:00:15.750Z,6.60
2023-01-17T14:02:42.514Z,6.60
2023-01-17T14:05:17.981Z,6.50
2023-01-17T14:07:49.331Z,6.40
2023-01-17T14:10:47.367Z,6.40
2023-01-17T14:13:36.868Z,6.30
2023-01-17T14:16:27.709Z,6.20
2023-01-17T14:18:55.028Z,6.20
2023-01-17T14:21:27.753Z,6.10
2023-01-17T14:24:04.939Z,6.10
2023-01-17T14:26:55.360Z,6.00
2023-01-17T14:29:55.250Z,5.90
2023-01-17T14:32:25.600Z,5.80
2023-01-17T14:34:52.876Z,5.70
2023-01-17T14:37:47.837Z,5.60
2023-01-17T14:40:17.672Z,5.40
2023-01-17T14:42:44.332Z,5.30
2023-01-17T14:45:21.926Z,5.18
2023-01-17T14:47:50.843Z,5.00
2023-01-17T14:50:17.402Z,4.90
2023-01-17T14:52:46.737Z,4.88
2023-01-17T14:55:19.289Z,4.80
2023-01-17T14:57:55.223Z,4.70
2023-01-17T15:00:24.579Z,4.60
2023-01-17T15:02:52.450Z,4.50
2023-01-17T15:05:20.779Z,4.40
2023-01-17T15:07:52.621Z,4.30
2023-01-17T15:10:28.652Z,4.20
2023-01-17T15:12:56.514Z,4.10
2023-01-17T15:15:37.624Z,4.00
2023-01-17T15:18:13.485Z,3.90
2023-01-17T15:20:48.407Z,3.90
2023-01-17T15:23:18.258Z,3.80
2023-01-17T15:25:47.019Z,3.70
2023-01-17T15:28:13.544Z,3.60
2023-01-17T15:31:22.592Z,3.50
2023-01-17T15:33:55.165Z,3.44
2023-01-17T15:36:31.816Z,3.40
2023-01-17T15:39:06.601Z,3.38
2023-01-17T15:41:37.524Z,3.30
2023-01-17T15:44:04.434Z,3.30
2023-01-17T15:46:42.838Z,3.28
2023-01-17T15:49:20.851Z,3.20
2023-01-17T15:52:09.681Z,3.20
2023-01-17T15:54:55.951Z,3.10
2023-01-17T15:57:32.384Z,3.10
2023-01-17T16:00:19.521Z,3.16
2023-01-17T16:02:54.398Z,3.20
2023-01-17T16:05:21.379Z,3.20
2023-01-17T16:07:55.684Z,3.20
2023-01-17T16:10:37.413Z,3.20
2023-01-17T16:13:05.819Z,3.20
2023-01-17T16:15:34.579Z,3.20
2023-01-17T16:18:25.148Z,3.10
2023-01-17T16:20:59.045Z,3.10
2023-01-17T16:23:27.154Z,3.10
2023-01-17T16:25:53.671Z,3.04
2023-01-17T16:28:20.549Z,3.00
2023-01-17T16:30:48.339Z,3.00
2023-01-17T16:33:14.896Z,2.94
2023-01-17T16:35:42.379Z,2.90
2023-01-17T16:38:14.986Z,2.90
2023-01-17T16:40:43.907Z,2.80
2023-01-17T16:43:13.223Z,2.80
2023-01-17T16:45:48.026Z,2.78
2023-01-17T16:48:14.768Z,2.70
2023-01-17T16:50:47.763Z,2.70
2023-01-17T16:53:15.123Z,2.60
2023-01-17T16:55:42.118Z,2.50
2023-01-17T16:58:08.698Z,2.40
2023-01-17T17:00:35.227Z,2.40
2023-01-17T17:03:01.961Z,2.30
2023-01-17T17:05:29.972Z,2.30
2023-01-17T17:07:57.140Z,2.26
2023-01-17T17:10:24.583Z,2.20
2023-01-17T17:12:51.449Z,2.20
2023-01-17T17:15:18.173Z,2.10
2023-01-17T17:17:44.741Z,2.10
2023-01-17T17:20:13.395Z,2.00
2023-01-17T17:22:42.915Z,2.00
2023-01-17T17:25:11.141Z,1.90
2023-01-17T17:27:37.781Z,1.90
2023-01-17T17:30:05.570Z,1.90
2023-01-17T17:32:32.068Z,1.82
2023-01-17T17:34:58.801Z,1.80
2023-01-17T17:37:28.292Z,1.80
2023-01-17T17:39:56.042Z,1.80
2023-01-17T17:42:22.851Z,1.80
2023-01-17T17:44:49.601Z,1.82
2023-01-17T17:47:16.078Z,1.90
2023-01-17T17:49:42.883Z,1.90
2023-01-17T17:52:09.524Z,1.90
2023-01-17T17:54:36.370Z,1.90
2023-01-17T17:57:03.044Z,1.86
2023-01-17T17:59:30.586Z,1.88
2023-01-17T18:01:59.054Z,1.90
2023-01-17T18:04:25.904Z,1.86
2023-01-17T18:06:56.687Z,1.88
2023-01-17T18:09:23.165Z,1.80
2023-01-17T18:11:49.714Z,1.80
2023-01-17T18:14:20.191Z,1.80
2023-01-17T18:16:47.159Z,1.80
2023-01-17T18:19:19.851Z,1.80
2023-01-17T18:21:46.491Z,1.70
2023-01-17T18:24:14.583Z,1.70
2023-01-17T18:26:43.603Z,1.70
2023-01-17T18:29:14.140Z,1.70
2023-01-17T18:31:42.332Z,1.60
2023-01-17T18:34:12.357Z,1.60
2023-01-17T18:36:38.912Z,1.60
2023-01-17T18:39:18.250Z,1.60
2023-01-17T18:41:45.147Z,1.60
2023-01-17T18:44:11.847Z,1.60
2023-01-17T18:46:39.561Z,1.52
2023-01-17T18:49:06.294Z,1.50
2023-01-17T18:51:33.842Z,1.50
2023-01-17T18:54:03.630Z,1.40
2023-01-17T18:56:33.573Z,1.40
2023-01-17T18:59:01.324Z,1.34
2023-01-17T19:01:29.886Z,1.30
2023-01-17T19:03:58.328Z,1.30
2023-01-17T19:06:33.605Z,1.30
2023-01-17T19:09:00.184Z,1.30
2023-01-17T19:11:27.206Z,1.30
2023-01-17T19:13:54.149Z,1.30
2023-01-17T19:16:29.530Z,1.30
2023-01-17T19:18:58.206Z,1.36
2023-01-17T19:21:26.682Z,1.34
2023-01-17T19:23:54.178Z,1.30
2023-01-17T19:26:22.464Z,1.32
2023-01-17T19:28:49.331Z,1.30
2023-01-17T19:31:19.854Z,1.30
2023-01-17T19:33:47.364Z,1.30
2023-01-17T19:36:20.800Z,1.30
2023-01-17T19:39:02.987Z,1.30
2023-01-17T19:41:30.576Z,1.30
2023-01-17T19:44:01.553Z,1.28
2023-01-17T19:46:28.446Z,1.28
2023-01-17T19:48:55.796Z,1.20
2023-01-17T19:51:22.545Z,1.20
2023-01-17T19:53:49.265Z,1.20
2023-01-17T19:56:18.238Z,1.20
2023-01-17T19:58:45.998Z,1.20
2023-01-17T20:01:21.164Z,1.20
2023-01-17T20:03:48.265Z,1.10
2023-01-17T20:06:21.007Z,1.10
2023-01-17T20:08:47.813Z,1.10
2023-01-17T20:11:20.056Z,1.10
2023-01-17T20:13:47.876Z,1.10
2023-01-17T20:16:15.658Z,1.10
2023-01-17T20:18:42.507Z,1.10
2023-01-17T20:21:17.290Z,1.10
2023-01-17T20:23:46.328Z,1.10
2023-01-17T20:26:21.892Z,1.10
2023-01-17T20:28:50.786Z,1.10
2023-01-17T20:31:22.849Z,1.10
2023-01-17T20:33:49.755Z,1.10
2023-01-17T20:36:17.330Z,1.10
2023-01-17T20:38:43.871Z,1.10
2023-01-17T20:41:34.183Z,1.10
2023-01-17T20:44:02.006Z,1.10
2023-01-17T20:46:40.225Z,1.00
2023-01-17T20:49:15.884Z,1.00
2023-01-17T20:51:43.463Z,1.00
2023-01-17T20:54:13.633Z,1.00
2023-01-17T20:56:40.417Z,1.00
2023-01-17T20:59:10.939Z,1.00
2023-01-17T21:01:37.688Z,0.94
2023-01-17T21:04:09.307Z,0.90
2023-01-17T21:06:37.999Z,0.90
2023-01-17T21:09:06.679Z,0.90
2023-01-17T21:11:37.050Z,0.80
2023-01-17T21:14:07.691Z,0.80
2023-01-17T21:16:34.363Z,0.76
2023-01-17T21:19:01.043Z,0.70
2023-01-17T21:21:28.613Z,0.70
2023-01-17T21:23:57.082Z,0.70
2023-01-17T21:26:26.611Z,0.70
2023-01-17T21:28:53.358Z,0.80
2023-01-17T21:31:26.007Z,0.80
2023-01-17T21:34:01.663Z,0.80
2023-01-17T21:36:34.240Z,0.80
2023-01-17T21:39:04.033Z,0.80
2023-01-17T21:41:34.064Z,0.80
2023-01-17T21:44:03.836Z,0.82
2023-01-17T21:46:30.222Z,0.80
2023-01-17T21:48:57.086Z,0.80
2023-01-17T21:51:24.129Z,0.80
2023-01-17T21:53:50.871Z,0.80
2023-01-17T21:56:36.083Z,0.80
2023-01-17T21:59:02.746Z,0.80
2023-01-17T22:01:31.613Z,0.80
2023-01-17T22:04:02.678Z,0.80
2023-01-17T22:06:31.765Z,0.80
2023-01-17T22:08:58.673Z,0.80
2023-01-17T22:11:26.229Z,0.80
2023-01-17T22:13:52.875Z,0.80
2023-01-17T22:16:22.805Z,0.80
2023-01-17T22:18:49.729Z,0.80
2023-01-17T22:21:27.621Z,0.80
2023-01-17T22:23:58.627Z,0.80
2023-01-17T22:26:28.397Z,0.80
2023-01-17T22:28:55.215Z,0.80
2023-01-17T22:31:25.134Z,0.80
2023-01-17T22:33:54.168Z,0.80
2023-01-17T22:36:20.863Z,0.80
2023-01-17T22:38:47.646Z,0.80
2023-01-17T22:41:17.063Z,0.80
2023-01-17T22:43:46.403Z,0.80
2023-01-17T22:46:18.942Z,0.80
2023-01-17T22:48:45.520Z,0.80
2023-01-17T22:51:14.436Z,0.80
2023-01-17T22:53:42.239Z,0.80
2023-01-17T22:56:12.199Z,0.80
2023-01-17T22:58:41.724Z,0.80
2023-01-17T23:01:12.729Z,0.80
2023-01-17T23:03:44.111Z,0.80
2023-01-17T23:06:12.963Z,0.80
2023-01-17T23:08:41.705Z,0.80
2023-01-17T23:11:45.566Z,0.80
2023-01-17T23:14:22.153Z,0.80
2023-01-17T23:17:15.994Z,0.80
2023-01-17T23:19:43.605Z,0.82
2023-01-17T23:22:16.608Z,0.84
2023-01-17T23:24:56.852Z,0.90
2023-01-17T23:27:49.732Z,0.90
2023-01-17T23:30:33.820Z,0.90
2023-01-17T23:33:18.498Z,0.90
2023-01-17T23:35:45.643Z,0.90
2023-01-17T23:38:25.801Z,0.90
2023-01-17T23:41:11.815Z,0.90
2023-01-17T23:43:38.331Z,0.90
2023-01-17T23:46:05.224Z,0.92
2023-01-17T23:48:31.826Z,0.94
2023-01-17T23:51:08.859Z,1.00
2023-01-17T23:53:37.278Z,1.00
2023-01-17T23:56:17.629Z,1.00
2023-01-17T23:58:44.145Z,1.00
